createdAt,value
2019-04-06T00:01:12.161Z,12.54
2019-04-06T00:06:17.905Z,12.60
2019-04-06T00:11:23.311Z,12.87
2019-04-06T00:16:28.184Z,12.86
2019-04-06T00:21:33.035Z,12.73
2019-04-06T00:26:38.032Z,13.01
2019-04-06T00:31:56.934Z,12.34
2019-04-06T00:37:02.024Z,12.53
2019-04-06T00:42:07.020Z,12.94
2019-04-06T00:47:11.973Z,12.96
2019-04-06T00:52:16.832Z,13.05
2019-04-06T00:57:21.799Z,13.04
2019-04-06T01:02:26.915Z,12.92
2019-04-06T01:07:31.711Z,12.40
2019-04-06T01:12:36.709Z,12.71
2019-04-06T01:17:41.428Z,12.48
2019-04-06T01:22:46.396Z,12.64
2019-04-06T01:27:51.353Z,12.19
2019-04-06T01:32:56.104Z,12.38
2019-04-06T01:38:00.934Z,12.34
2019-04-06T01:43:05.915Z,11.69
2019-04-06T01:48:10.844Z,11.92
2019-04-06T01:53:15.725Z,12.30
2019-04-06T01:58:21.210Z,12.04
2019-04-06T02:03:26.081Z,12.34
2019-04-06T02:08:30.823Z,12.45
2019-04-06T02:13:35.570Z,11.99
2019-04-06T02:18:40.313Z,11.59
2019-04-06T02:23:45.164Z,11.45
2019-04-06T02:28:50.081Z,11.32
2019-04-06T02:34:05.308Z,11.56
2019-04-06T02:39:27.854Z,11.16
2019-04-06T02:44:32.491Z,11.13
2019-04-06T02:49:37.339Z,11.16
2019-04-06T02:54:42.187Z,11.13
2019-04-06T02:59:46.925Z,10.99
2019-04-06T03:04:51.564Z,10.99
2019-04-06T03:09:56.351Z,10.86
2019-04-06T03:15:01.154Z,10.92
2019-04-06T03:20:06.413Z,9.92
2019-04-06T03:25:12.080Z,10.11
2019-04-06T03:30:16.716Z,9.90
2019-04-06T03:35:21.467Z,10.00
2019-04-06T03:40:27.229Z,9.42
2019-04-06T03:45:31.969Z,9.19
2019-04-06T03:50:36.724Z,9.54
2019-04-06T03:55:41.370Z,9.67
2019-04-06T04:00:45.982Z,9.29
2019-04-06T04:05:50.754Z,8.71
2019-04-06T04:10:55.477Z,8.47
2019-04-06T04:16:00.248Z,8.80
2019-04-06T04:21:05.204Z,8.43
2019-04-06T04:26:09.912Z,8.37
2019-04-06T04:31:14.789Z,9.21
2019-04-06T04:36:20.485Z,9.43
2019-04-06T04:41:25.177Z,9.13
2019-04-06T04:46:29.909Z,9.25
2019-04-06T04:51:34.652Z,9.96
2019-04-06T04:56:39.394Z,10.01
2019-04-06T05:01:44.137Z,10.89
2019-04-06T05:06:48.882Z,11.00
2019-04-06T05:11:53.899Z,11.38
2019-04-06T05:16:58.730Z,10.58
2019-04-06T05:22:04.614Z,11.71
2019-04-06T05:27:10.729Z,12.46
2019-04-06T05:32:19.787Z,12.29
2019-04-06T05:37:25.300Z,12.70
2019-04-06T05:42:31.297Z,13.17
2019-04-06T05:47:37.583Z,13.23
2019-04-06T05:52:44.402Z,13.75
2019-04-06T05:57:49.635Z,14.07
2019-04-06T06:02:55.217Z,14.27
2019-04-06T06:08:00.610Z,14.24
2019-04-06T06:13:05.667Z,14.46
2019-04-06T06:18:10.640Z,14.35
2019-04-06T06:23:16.202Z,14.21
2019-04-06T06:28:22.625Z,14.49
2019-04-06T06:33:27.615Z,14.38
2019-04-06T06:38:33.154Z,14.83
2019-04-06T06:43:38.330Z,15.20
2019-04-06T06:48:43.408Z,15.24
2019-04-06T06:53:49.177Z,14.94
2019-04-06T06:58:54.843Z,15.21
2019-04-06T07:04:00.238Z,15.57
2019-04-06T07:09:07.346Z,16.04
2019-04-06T07:14:12.843Z,15.73
2019-04-06T07:19:20.188Z,16.81
2019-04-06T07:24:25.353Z,16.60
2019-04-06T07:29:32.457Z,16.69
2019-04-06T07:34:38.366Z,16.69
2019-04-06T07:39:45.676Z,16.98
2019-04-06T07:44:52.198Z,17.46
2019-04-06T07:49:57.379Z,17.65
2019-04-06T07:55:02.502Z,17.98
2019-04-06T08:00:07.815Z,17.78
2019-04-06T08:05:12.905Z,17.59
2019-04-06T08:10:20.345Z,16.87
2019-04-06T08:15:25.479Z,17.02
2019-04-06T08:20:30.433Z,18.17
2019-04-06T08:25:35.248Z,17.72
2019-04-06T08:30:45.967Z,17.76
2019-04-06T08:35:47.719Z,18.25
2019-04-06T08:40:54.578Z,18.82
2019-04-06T08:46:00.561Z,19.35
2019-04-06T08:51:06.489Z,19.61
2019-04-06T08:56:12.023Z,19.88
2019-04-06T09:01:16.736Z,19.37
2019-04-06T09:06:22.613Z,19.45
2019-04-06T09:11:29.012Z,19.80
2019-04-06T09:16:35.074Z,19.85
2019-04-06T09:21:42.089Z,18.56
2019-04-06T09:26:49.396Z,19.57
2019-04-06T09:31:56.980Z,19.99
2019-04-06T09:37:01.855Z,19.41
2019-04-06T09:42:07.474Z,19.46
2019-04-06T09:47:16.880Z,19.99
2019-04-06T09:52:26.088Z,20.14
2019-04-06T09:57:48.040Z,20.30
2019-04-06T10:02:54.524Z,19.80
2019-04-06T10:08:17.724Z,20.81
2019-04-06T10:13:34.062Z,19.44
2019-04-06T10:18:56.889Z,19.77
2019-04-06T10:24:12.392Z,20.06
2019-04-06T10:29:47.386Z,20.51
2019-04-06T10:34:43.310Z,20.25
2019-04-06T10:39:55.794Z,20.14
2019-04-06T10:45:06.214Z,20.12
2019-04-06T10:50:19.189Z,20.39
2019-04-06T10:55:37.673Z,19.87
2019-04-06T11:00:46.733Z,19.23
2019-04-06T11:05:53.478Z,19.01
2019-04-06T11:11:18.251Z,18.75
2019-04-06T11:16:40.169Z,18.98
2019-04-06T11:21:49.519Z,19.16
2019-04-06T11:26:58.875Z,18.64
2019-04-06T11:32:17.241Z,18.99
2019-04-06T11:37:26.682Z,18.53
2019-04-06T11:42:49.250Z,18.82
2019-04-06T11:48:14.533Z,19.12
2019-04-06T11:53:40.782Z,19.35
2019-04-06T11:58:47.480Z,19.65
2019-04-06T12:03:53.927Z,20.11
2019-04-06T12:09:15.810Z,20.47
2019-04-06T12:14:28.243Z,20.76
2019-04-06T12:19:37.726Z,20.58
2019-04-06T12:25:00.597Z,20.43
2019-04-06T12:30:11.276Z,20.41
2019-04-06T12:35:17.677Z,20.30
2019-04-06T12:40:37.909Z,19.29
2019-04-06T12:45:44.237Z,19.60
2019-04-06T12:51:10.632Z,19.66
2019-04-06T12:56:33.437Z,19.93
2019-04-06T13:01:45.687Z,19.94
2019-04-06T13:07:08.555Z,19.62
2019-04-06T13:12:17.709Z,19.69
2019-04-06T13:17:33.346Z,20.29
2019-04-06T13:22:49.413Z,19.92
2019-04-06T13:28:02.135Z,20.07
2019-04-06T13:33:20.424Z,20.74
2019-04-06T13:38:43.398Z,20.91
2019-04-06T13:43:53.330Z,20.46
2019-04-06T13:49:08.787Z,20.77
2019-04-06T13:54:18.077Z,21.09
2019-04-06T13:59:24.535Z,20.62
2019-04-06T14:04:40.157Z,20.94
2019-04-06T14:09:50.188Z,21.47
2019-04-06T14:14:56.601Z,21.05
2019-04-06T14:20:19.682Z,21.02
2019-04-06T14:25:29.134Z,21.24
2019-04-06T14:30:35.698Z,20.44
2019-04-06T14:35:48.146Z,20.71
2019-04-06T14:41:00.926Z,20.00
2019-04-06T14:46:12.126Z,20.66
2019-04-06T14:51:33.939Z,20.96
2019-04-06T14:56:43.227Z,21.13
2019-04-06T15:02:00.035Z,20.48
2019-04-06T15:07:12.132Z,21.20
2019-04-06T15:12:26.121Z,20.49
2019-04-06T15:17:39.093Z,20.42
2019-04-06T15:23:01.575Z,20.62
2019-04-06T15:28:09.629Z,20.81
2019-04-06T15:33:25.559Z,20.40
2019-04-06T15:38:33.634Z,20.68
2019-04-06T15:44:04.769Z,20.42
2019-04-06T15:49:27.110Z,20.65
2019-04-06T15:54:38.823Z,20.13
2019-04-06T15:59:49.135Z,19.66
2019-04-06T16:04:58.593Z,20.13
2019-04-06T16:10:07.821Z,20.23
2019-04-06T16:15:20.157Z,20.04
2019-04-06T16:20:44.776Z,19.55
2019-04-06T16:26:09.201Z,19.18
2019-04-06T16:31:15.779Z,19.61
2019-04-06T16:36:35.256Z,19.75
2019-04-06T16:41:58.685Z,19.85
2019-04-06T16:47:17.485Z,19.70
2019-04-06T16:52:32.778Z,19.76
2019-04-06T16:57:40.040Z,19.85
2019-04-06T17:02:51.077Z,19.47
2019-04-06T17:08:14.400Z,18.28
2019-04-06T17:13:37.528Z,19.21
2019-04-06T17:18:56.813Z,18.92
2019-04-06T17:24:09.452Z,19.03
2019-04-06T17:29:26.063Z,18.93
2019-04-06T17:34:33.099Z,17.81
2019-04-06T17:39:58.232Z,18.26
2019-04-06T17:45:24.625Z,18.36
2019-04-06T17:50:49.353Z,18.34
2019-04-06T17:56:05.161Z,18.20
2019-04-06T18:01:18.912Z,18.09
2019-04-06T18:06:28.208Z,16.96
2019-04-06T18:11:42.987Z,17.61
2019-04-06T18:16:48.402Z,17.33
2019-04-06T18:21:53.340Z,17.41
2019-04-06T18:26:58.782Z,17.19
2019-04-06T18:32:09.518Z,17.30
2019-04-06T18:37:23.468Z,16.50
2019-04-06T18:42:30.834Z,16.87
2019-04-06T18:47:38.953Z,16.65
2019-04-06T18:52:46.446Z,16.67
2019-04-06T18:57:52.647Z,16.53
2019-04-06T19:03:09.736Z,16.46
2019-04-06T19:08:06.788Z,16.35
2019-04-06T19:13:12.286Z,15.72
2019-04-06T19:18:17.159Z,15.81
2019-04-06T19:23:22.103Z,16.00
2019-04-06T19:28:26.849Z,15.87
2019-04-06T19:33:31.910Z,15.69
2019-04-06T19:38:36.779Z,15.69
2019-04-06T19:43:42.563Z,15.71
2019-04-06T19:48:48.298Z,15.76
2019-04-06T19:53:55.905Z,15.70
2019-04-06T19:59:00.863Z,14.55
2019-04-06T20:04:08.081Z,15.24
2019-04-06T20:09:13.443Z,15.41
2019-04-06T20:14:18.469Z,15.53
2019-04-06T20:19:23.780Z,15.01
2019-04-06T20:24:28.739Z,15.18
2019-04-06T20:29:34.121Z,15.12
2019-04-06T20:34:39.011Z,15.15
2019-04-06T20:39:44.941Z,15.20
2019-04-06T20:44:50.088Z,14.94
2019-04-06T20:49:56.830Z,14.93
2019-04-06T20:55:05.906Z,15.36
2019-04-06T21:00:14.122Z,15.50
2019-04-06T21:05:24.219Z,15.66
2019-04-06T21:10:32.620Z,15.47
2019-04-06T21:15:41.945Z,14.89
2019-04-06T21:20:48.032Z,14.79
2019-04-06T21:25:53.114Z,15.33
2019-04-06T21:30:57.829Z,15.39
2019-04-06T21:36:04.006Z,15.40
2019-04-06T21:41:11.347Z,14.45
2019-04-06T21:46:18.581Z,14.97
2019-04-06T21:51:26.101Z,14.55
2019-04-06T21:56:32.833Z,15.07
2019-04-06T22:01:38.357Z,14.75
2019-04-06T22:06:45.066Z,15.03
2019-04-06T22:11:50.456Z,14.97
2019-04-06T22:16:55.982Z,15.16
2019-04-06T22:22:02.134Z,14.92
2019-04-06T22:27:08.118Z,14.81
2019-04-06T22:32:14.085Z,14.58
2019-04-06T22:37:19.571Z,14.93
2019-04-06T22:42:24.895Z,14.97
2019-04-06T22:47:30.143Z,14.60
2019-04-06T22:52:35.359Z,14.73
2019-04-06T22:57:42.101Z,14.94
2019-04-06T23:02:48.791Z,14.94
2019-04-06T23:07:54.237Z,14.87
2019-04-06T23:12:59.661Z,14.73
2019-04-06T23:18:04.809Z,14.81
2019-04-06T23:23:10.833Z,14.34
2019-04-06T23:28:15.932Z,14.36
2019-04-06T23:33:21.217Z,13.81
2019-04-06T23:38:27.409Z,14.39
2019-04-06T23:43:32.219Z,14.38
2019-04-06T23:48:36.814Z,14.50
2019-04-06T23:53:42.127Z,14.60
2019-04-06T23:58:47.169Z,14.38
